sensor_id;sensor_type;location;lat;lon;timestamp;P1;durP1;ratioP1;P2;durP2;ratioP2
19879;SDS011;10102;50.828;4.416;2023-04-03T00:02:17;11.95;;;7.35;;
19879;SDS011;10102;50.828;4.416;2023-04-03T00:04:43;10.60;;;7.40;;
19879;SDS011;10102;50.828;4.416;2023-04-03T00:07:09;12.60;;;8.60;;
19879;SDS011;10102;50.828;4.416;2023-04-03T00:09:35;13.25;;;7.72;;
19879;SDS011;10102;50.828;4.416;2023-04-03T00:12:00;9.45;;;7.80;;
19879;SDS011;10102;50.828;4.416;2023-04-03T00:14:26;11.05;;;8.40;;
19879;SDS011;10102;50.828;4.416;2023-04-03T00:16:52;9.20;;;7.82;;
19879;SDS011;10102;50.828;4.416;2023-04-03T00:19:18;12.23;;;8.88;;
19879;SDS011;10102;50.828;4.416;2023-04-03T00:21:44;14.77;;;8.98;;
19879;SDS011;10102;50.828;4.416;2023-04-03T00:24:16;9.98;;;7.95;;
19879;SDS011;10102;50.828;4.416;2023-04-03T00:26:42;11.60;;;9.02;;
19879;SDS011;10102;50.828;4.416;2023-04-03T00:29:07;12.88;;;8.20;;
19879;SDS011;10102;50.828;4.416;2023-04-03T00:31:33;13.05;;;8.30;;
19879;SDS011;10102;50.828;4.416;2023-04-03T00:33:59;12.85;;;8.65;;
19879;SDS011;10102;50.828;4.416;2023-04-03T00:36:25;11.10;;;8.00;;
19879;SDS011;10102;50.828;4.416;2023-04-03T00:38:51;13.80;;;8.50;;
19879;SDS011;10102;50.828;4.416;2023-04-03T00:41:17;11.90;;;7.85;;
19879;SDS011;10102;50.828;4.416;2023-04-03T00:43:43;17.55;;;8.30;;
19879;SDS011;10102;50.828;4.416;2023-04-03T00:46:09;10.60;;;7.72;;
19879;SDS011;10102;50.828;4.416;2023-04-03T00:48:39;12.95;;;8.10;;
19879;SDS011;10102;50.828;4.416;2023-04-03T00:51:09;10.80;;;8.30;;
19879;SDS011;10102;50.828;4.416;2023-04-03T00:53:40;12.52;;;7.68;;
19879;SDS011;10102;50.828;4.416;2023-04-03T00:56:13;10.38;;;7.75;;
19879;SDS011;10102;50.828;4.416;2023-04-03T00:58:49;13.73;;;7.85;;
19879;SDS011;10102;50.828;4.416;2023-04-03T01:01:20;15.73;;;7.93;;
19879;SDS011;10102;50.828;4.416;2023-04-03T01:03:49;11.80;;;7.38;;
19879;SDS011;10102;50.828;4.416;2023-04-03T01:06:16;11.60;;;8.25;;
19879;SDS011;10102;50.828;4.416;2023-04-03T01:08:45;12.82;;;7.70;;
19879;SDS011;10102;50.828;4.416;2023-04-03T01:11:14;10.52;;;7.68;;
19879;SDS011;10102;50.828;4.416;2023-04-03T01:13:40;10.23;;;7.40;;
19879;SDS011;10102;50.828;4.416;2023-04-03T01:16:05;13.50;;;7.32;;
19879;SDS011;10102;50.828;4.416;2023-04-03T01:18:32;12.48;;;6.90;;
19879;SDS011;10102;50.828;4.416;2023-04-03T01:26:23;12.57;;;8.00;;
19879;SDS011;10102;50.828;4.416;2023-04-03T01:28:50;8.27;;;6.63;;
19879;SDS011;10102;50.828;4.416;2023-04-03T01:31:24;10.48;;;6.95;;
19879;SDS011;10102;50.828;4.416;2023-04-03T01:34:04;10.43;;;7.43;;
19879;SDS011;10102;50.828;4.416;2023-04-03T01:36:30;10.55;;;6.85;;
19879;SDS011;10102;50.828;4.416;2023-04-03T01:38:57;12.82;;;7.93;;
19879;SDS011;10102;50.828;4.416;2023-04-03T01:41:24;11.20;;;6.88;;
19879;SDS011;10102;50.828;4.416;2023-04-03T01:43:50;12.65;;;6.85;;
19879;SDS011;10102;50.828;4.416;2023-04-03T01:46:17;12.48;;;7.20;;
19879;SDS011;10102;50.828;4.416;2023-04-03T01:48:43;11.13;;;7.10;;
19879;SDS011;10102;50.828;4.416;2023-04-03T01:51:08;14.05;;;7.63;;
19879;SDS011;10102;50.828;4.416;2023-04-03T01:53:35;9.65;;;6.93;;
19879;SDS011;10102;50.828;4.416;2023-04-03T01:56:00;12.30;;;7.28;;
19879;SDS011;10102;50.828;4.416;2023-04-03T01:58:26;10.80;;;7.07;;
19879;SDS011;10102;50.828;4.416;2023-04-03T02:00:52;11.35;;;7.53;;
19879;SDS011;10102;50.828;4.416;2023-04-03T02:03:17;11.50;;;6.63;;
19879;SDS011;10102;50.828;4.416;2023-04-03T02:05:43;11.10;;;7.32;;
19879;SDS011;10102;50.828;4.416;2023-04-03T02:08:09;9.13;;;6.82;;
19879;SDS011;10102;50.828;4.416;2023-04-03T02:10:35;10.77;;;6.65;;
19879;SDS011;10102;50.828;4.416;2023-04-03T02:13:01;13.57;;;7.38;;
19879;SDS011;10102;50.828;4.416;2023-04-03T02:15:27;12.38;;;7.28;;
19879;SDS011;10102;50.828;4.416;2023-04-03T02:17:53;12.80;;;7.30;;
19879;SDS011;10102;50.828;4.416;2023-04-03T02:20:19;11.65;;;7.07;;
19879;SDS011;10102;50.828;4.416;2023-04-03T02:22:45;9.93;;;6.68;;
19879;SDS011;10102;50.828;4.416;2023-04-03T02:25:11;11.82;;;7.53;;
19879;SDS011;10102;50.828;4.416;2023-04-03T02:27:38;8.63;;;6.60;;
19879;SDS011;10102;50.828;4.416;2023-04-03T02:30:04;11.13;;;6.78;;
19879;SDS011;10102;50.828;4.416;2023-04-03T02:32:30;11.32;;;7.20;;
19879;SDS011;10102;50.828;4.416;2023-04-03T02:34:56;15.98;;;7.20;;
19879;SDS011;10102;50.828;4.416;2023-04-03T02:37:22;9.48;;;7.18;;
19879;SDS011;10102;50.828;4.416;2023-04-03T02:39:47;11.88;;;7.85;;
19879;SDS011;10102;50.828;4.416;2023-04-03T02:42:13;10.25;;;6.72;;
19879;SDS011;10102;50.828;4.416;2023-04-03T02:44:39;11.05;;;7.10;;
19879;SDS011;10102;50.828;4.416;2023-04-03T02:47:05;9.65;;;7.22;;
19879;SDS011;10102;50.828;4.416;2023-04-03T02:49:31;7.50;;;6.22;;
19879;SDS011;10102;50.828;4.416;2023-04-03T02:51:56;9.45;;;7.05;;
19879;SDS011;10102;50.828;4.416;2023-04-03T02:54:22;11.30;;;7.65;;
19879;SDS011;10102;50.828;4.416;2023-04-03T02:56:49;9.98;;;7.30;;
19879;SDS011;10102;50.828;4.416;2023-04-03T02:59:15;10.52;;;7.10;;
19879;SDS011;10102;50.828;4.416;2023-04-03T03:01:41;11.68;;;7.00;;
19879;SDS011;10102;50.828;4.416;2023-04-03T03:04:06;8.23;;;6.25;;
19879;SDS011;10102;50.828;4.416;2023-04-03T03:06:33;13.68;;;7.05;;
19879;SDS011;10102;50.828;4.416;2023-04-03T03:08:58;9.50;;;7.00;;
19879;SDS011;10102;50.828;4.416;2023-04-03T03:11:24;9.60;;;6.60;;
19879;SDS011;10102;50.828;4.416;2023-04-03T03:13:51;10.85;;;7.10;;
19879;SDS011;10102;50.828;4.416;2023-04-03T03:16:17;9.82;;;6.97;;
19879;SDS011;10102;50.828;4.416;2023-04-03T03:18:43;10.57;;;6.78;;
19879;SDS011;10102;50.828;4.416;2023-04-03T03:21:08;10.75;;;6.75;;
19879;SDS011;10102;50.828;4.416;2023-04-03T03:23:35;8.98;;;6.55;;
19879;SDS011;10102;50.828;4.416;2023-04-03T03:26:03;13.02;;;6.43;;
19879;SDS011;10102;50.828;4.416;2023-04-03T03:28:30;12.65;;;6.60;;
19879;SDS011;10102;50.828;4.416;2023-04-03T03:30:56;10.00;;;6.90;;
19879;SDS011;10102;50.828;4.416;2023-04-03T03:33:23;8.98;;;7.10;;
19879;SDS011;10102;50.828;4.416;2023-04-03T03:35:50;11.07;;;7.53;;
19879;SDS011;10102;50.828;4.416;2023-04-03T03:38:16;10.35;;;6.93;;
19879;SDS011;10102;50.828;4.416;2023-04-03T03:40:42;8.57;;;6.60;;
19879;SDS011;10102;50.828;4.416;2023-04-03T03:43:08;14.27;;;7.15;;
19879;SDS011;10102;50.828;4.416;2023-04-03T03:45:34;9.38;;;6.43;;
19879;SDS011;10102;50.828;4.416;2023-04-03T03:48:01;7.93;;;6.53;;
19879;SDS011;10102;50.828;4.416;2023-04-03T03:50:27;9.30;;;7.50;;
19879;SDS011;10102;50.828;4.416;2023-04-03T03:52:52;11.48;;;7.57;;
19879;SDS011;10102;50.828;4.416;2023-04-03T03:55:18;8.35;;;6.45;;
19879;SDS011;10102;50.828;4.416;2023-04-03T03:57:44;13.07;;;7.25;;
19879;SDS011;10102;50.828;4.416;2023-04-03T04:00:09;11.20;;;7.03;;
19879;SDS011;10102;50.828;4.416;2023-04-03T04:02:35;8.63;;;7.35;;
19879;SDS011;10102;50.828;4.416;2023-04-03T04:05:01;9.55;;;6.85;;
19879;SDS011;10102;50.828;4.416;2023-04-03T04:07:27;10.73;;;8.07;;
19879;SDS011;10102;50.828;4.416;2023-04-03T04:09:54;10.30;;;7.40;;
19879;SDS011;10102;50.828;4.416;2023-04-03T04:12:20;16.02;;;6.93;;
19879;SDS011;10102;50.828;4.416;2023-04-03T04:14:47;9.75;;;7.35;;
19879;SDS011;10102;50.828;4.416;2023-04-03T04:17:13;11.30;;;7.55;;
19879;SDS011;10102;50.828;4.416;2023-04-03T04:19:39;11.23;;;7.35;;
19879;SDS011;10102;50.828;4.416;2023-04-03T04:22:05;11.07;;;8.05;;
19879;SDS011;10102;50.828;4.416;2023-04-03T04:24:31;12.15;;;6.95;;
19879;SDS011;10102;50.828;4.416;2023-04-03T04:26:56;9.65;;;7.60;;
19879;SDS011;10102;50.828;4.416;2023-04-03T04:29:22;10.20;;;7.45;;
19879;SDS011;10102;50.828;4.416;2023-04-03T04:31:48;13.70;;;7.53;;
19879;SDS011;10102;50.828;4.416;2023-04-03T04:34:13;13.35;;;7.72;;
19879;SDS011;10102;50.828;4.416;2023-04-03T04:36:39;11.82;;;7.75;;
19879;SDS011;10102;50.828;4.416;2023-04-03T04:39:05;10.15;;;7.40;;
19879;SDS011;10102;50.828;4.416;2023-04-03T04:41:31;11.63;;;7.97;;
19879;SDS011;10102;50.828;4.416;2023-04-03T04:43:56;14.10;;;8.18;;
19879;SDS011;10102;50.828;4.416;2023-04-03T04:46:22;14.68;;;7.72;;
19879;SDS011;10102;50.828;4.416;2023-04-03T04:48:48;17.23;;;7.75;;
19879;SDS011;10102;50.828;4.416;2023-04-03T04:51:14;12.27;;;8.35;;
19879;SDS011;10102;50.828;4.416;2023-04-03T04:53:41;11.60;;;8.15;;
19879;SDS011;10102;50.828;4.416;2023-04-03T04:56:07;15.02;;;7.80;;
19879;SDS011;10102;50.828;4.416;2023-04-03T04:58:33;15.30;;;7.80;;
19879;SDS011;10102;50.828;4.416;2023-04-03T05:01:03;12.98;;;8.13;;
19879;SDS011;10102;50.828;4.416;2023-04-03T05:03:30;13.88;;;7.90;;
19879;SDS011;10102;50.828;4.416;2023-04-03T05:05:56;10.98;;;8.30;;
19879;SDS011;10102;50.828;4.416;2023-04-03T05:08:21;12.25;;;7.30;;
19879;SDS011;10102;50.828;4.416;2023-04-03T05:10:47;13.88;;;8.02;;
19879;SDS011;10102;50.828;4.416;2023-04-03T05:13:13;13.23;;;7.80;;
19879;SDS011;10102;50.828;4.416;2023-04-03T05:15:39;10.85;;;7.88;;
19879;SDS011;10102;50.828;4.416;2023-04-03T05:18:05;13.57;;;7.93;;
19879;SDS011;10102;50.828;4.416;2023-04-03T05:20:32;11.70;;;8.48;;
19879;SDS011;10102;50.828;4.416;2023-04-03T05:23:00;10.57;;;8.18;;
19879;SDS011;10102;50.828;4.416;2023-04-03T05:25:26;12.98;;;8.35;;
19879;SDS011;10102;50.828;4.416;2023-04-03T05:27:52;12.85;;;8.00;;
19879;SDS011;10102;50.828;4.416;2023-04-03T05:33:39;13.98;;;8.02;;
19879;SDS011;10102;50.828;4.416;2023-04-03T05:36:06;13.23;;;9.35;;
19879;SDS011;10102;50.828;4.416;2023-04-03T05:38:32;16.63;;;8.70;;
19879;SDS011;10102;50.828;4.416;2023-04-03T05:40:58;12.57;;;8.38;;
19879;SDS011;10102;50.828;4.416;2023-04-03T05:43:24;14.90;;;9.13;;
19879;SDS011;10102;50.828;4.416;2023-04-03T05:45:50;14.48;;;8.90;;
19879;SDS011;10102;50.828;4.416;2023-04-03T05:48:17;10.52;;;8.40;;
19879;SDS011;10102;50.828;4.416;2023-04-03T05:50:42;11.93;;;9.05;;
19879;SDS011;10102;50.828;4.416;2023-04-03T05:53:14;17.77;;;9.18;;
19879;SDS011;10102;50.828;4.416;2023-04-03T05:55:47;15.45;;;8.82;;
19879;SDS011;10102;50.828;4.416;2023-04-03T05:58:13;18.20;;;9.13;;
19879;SDS011;10102;50.828;4.416;2023-04-03T06:00:38;15.38;;;9.48;;
19879;SDS011;10102;50.828;4.416;2023-04-03T06:03:05;14.95;;;10.02;;
19879;SDS011;10102;50.828;4.416;2023-04-03T06:05:31;12.82;;;9.18;;
19879;SDS011;10102;50.828;4.416;2023-04-03T06:07:57;14.68;;;8.85;;
19879;SDS011;10102;50.828;4.416;2023-04-03T06:10:23;14.27;;;9.70;;
19879;SDS011;10102;50.828;4.416;2023-04-03T06:12:49;14.73;;;9.82;;
19879;SDS011;10102;50.828;4.416;2023-04-03T06:15:16;14.50;;;10.82;;
19879;SDS011;10102;50.828;4.416;2023-04-03T06:17:42;15.65;;;9.38;;
19879;SDS011;10102;50.828;4.416;2023-04-03T06:20:08;14.77;;;9.60;;
19879;SDS011;10102;50.828;4.416;2023-04-03T06:22:34;17.40;;;10.48;;
19879;SDS011;10102;50.828;4.416;2023-04-03T06:25:01;14.82;;;9.73;;
19879;SDS011;10102;50.828;4.416;2023-04-03T06:27:26;15.20;;;10.38;;
19879;SDS011;10102;50.828;4.416;2023-04-03T06:29:52;16.15;;;10.90;;
19879;SDS011;10102;50.828;4.416;2023-04-03T06:32:18;15.75;;;10.18;;
19879;SDS011;10102;50.828;4.416;2023-04-03T06:34:43;14.52;;;10.07;;
19879;SDS011;10102;50.828;4.416;2023-04-03T06:37:13;19.35;;;10.45;;
19879;SDS011;10102;50.828;4.416;2023-04-03T06:39:44;18.17;;;10.50;;
19879;SDS011;10102;50.828;4.416;2023-04-03T06:42:10;16.73;;;10.13;;
19879;SDS011;10102;50.828;4.416;2023-04-03T06:44:36;16.38;;;10.95;;
19879;SDS011;10102;50.828;4.416;2023-04-03T06:47:02;15.32;;;11.18;;
19879;SDS011;10102;50.828;4.416;2023-04-03T06:49:28;20.48;;;11.50;;
19879;SDS011;10102;50.828;4.416;2023-04-03T06:51:54;15.95;;;11.45;;
19879;SDS011;10102;50.828;4.416;2023-04-03T06:54:21;17.85;;;11.52;;
19879;SDS011;10102;50.828;4.416;2023-04-03T06:56:47;15.45;;;10.20;;
19879;SDS011;10102;50.828;4.416;2023-04-03T06:59:13;16.30;;;11.05;;
19879;SDS011;10102;50.828;4.416;2023-04-03T07:01:39;17.95;;;11.18;;
19879;SDS011;10102;50.828;4.416;2023-04-03T07:04:06;15.27;;;10.20;;
19879;SDS011;10102;50.828;4.416;2023-04-03T07:06:32;12.43;;;9.93;;
19879;SDS011;10102;50.828;4.416;2023-04-03T07:08:59;13.35;;;10.13;;
19879;SDS011;10102;50.828;4.416;2023-04-03T07:11:25;15.10;;;9.68;;
19879;SDS011;10102;50.828;4.416;2023-04-03T07:13:52;15.23;;;9.85;;
19879;SDS011;10102;50.828;4.416;2023-04-03T07:16:18;16.40;;;10.70;;
19879;SDS011;10102;50.828;4.416;2023-04-03T07:18:45;14.00;;;10.50;;
19879;SDS011;10102;50.828;4.416;2023-04-03T07:21:11;15.30;;;9.65;;
19879;SDS011;10102;50.828;4.416;2023-04-03T07:23:37;18.33;;;9.93;;
19879;SDS011;10102;50.828;4.416;2023-04-03T07:26:04;16.65;;;10.75;;
19879;SDS011;10102;50.828;4.416;2023-04-03T07:28:29;14.20;;;9.70;;
19879;SDS011;10102;50.828;4.416;2023-04-03T07:31:06;15.10;;;10.02;;
19879;SDS011;10102;50.828;4.416;2023-04-03T07:33:34;15.73;;;9.85;;
19879;SDS011;10102;50.828;4.416;2023-04-03T07:36:00;15.25;;;10.23;;
19879;SDS011;10102;50.828;4.416;2023-04-03T07:38:26;14.00;;;10.00;;
19879;SDS011;10102;50.828;4.416;2023-04-03T07:40:52;14.65;;;9.60;;
19879;SDS011;10102;50.828;4.416;2023-04-03T07:43:19;12.20;;;9.68;;
19879;SDS011;10102;50.828;4.416;2023-04-03T07:45:46;12.80;;;9.60;;
19879;SDS011;10102;50.828;4.416;2023-04-03T07:48:15;16.42;;;9.80;;
19879;SDS011;10102;50.828;4.416;2023-04-03T07:50:48;13.27;;;9.43;;
19879;SDS011;10102;50.828;4.416;2023-04-03T07:53:14;18.23;;;9.68;;
19879;SDS011;10102;50.828;4.416;2023-04-03T07:55:40;13.20;;;9.23;;
19879;SDS011;10102;50.828;4.416;2023-04-03T07:58:13;13.55;;;8.20;;
19879;SDS011;10102;50.828;4.416;2023-04-03T08:00:40;13.55;;;9.00;;
19879;SDS011;10102;50.828;4.416;2023-04-03T08:03:08;12.93;;;8.43;;
19879;SDS011;10102;50.828;4.416;2023-04-03T08:05:36;12.90;;;7.93;;
19879;SDS011;10102;50.828;4.416;2023-04-03T08:08:04;16.42;;;7.32;;
19879;SDS011;10102;50.828;4.416;2023-04-03T08:10:30;12.57;;;7.75;;
19879;SDS011;10102;50.828;4.416;2023-04-03T08:12:56;16.08;;;7.72;;
19879;SDS011;10102;50.828;4.416;2023-04-03T08:15:22;14.32;;;8.02;;
19879;SDS011;10102;50.828;4.416;2023-04-03T08:17:48;8.90;;;7.40;;
19879;SDS011;10102;50.828;4.416;2023-04-03T08:20:15;15.35;;;7.63;;
19879;SDS011;10102;50.828;4.416;2023-04-03T08:22:41;17.30;;;7.60;;
19879;SDS011;10102;50.828;4.416;2023-04-03T08:25:07;10.68;;;7.10;;
19879;SDS011;10102;50.828;4.416;2023-04-03T08:27:34;12.32;;;6.90;;
19879;SDS011;10102;50.828;4.416;2023-04-03T08:30:00;8.98;;;6.90;;
19879;SDS011;10102;50.828;4.416;2023-04-03T08:32:26;12.63;;;6.32;;
19879;SDS011;10102;50.828;4.416;2023-04-03T08:34:52;8.60;;;6.65;;
19879;SDS011;10102;50.828;4.416;2023-04-03T08:37:18;8.90;;;6.20;;
19879;SDS011;10102;50.828;4.416;2023-04-03T08:39:44;7.55;;;5.90;;
19879;SDS011;10102;50.828;4.416;2023-04-03T08:50:13;10.32;;;6.80;;
19879;SDS011;10102;50.828;4.416;2023-04-03T08:52:44;12.48;;;6.53;;
19879;SDS011;10102;50.828;4.416;2023-04-03T08:55:28;9.88;;;6.55;;
19879;SDS011;10102;50.828;4.416;2023-04-03T09:00:25;8.27;;;6.05;;
19879;SDS011;10102;50.828;4.416;2023-04-03T09:02:55;10.35;;;6.22;;
19879;SDS011;10102;50.828;4.416;2023-04-03T09:08:25;8.40;;;5.10;;
19879;SDS011;10102;50.828;4.416;2023-04-03T09:11:16;10.38;;;5.80;;
19879;SDS011;10102;50.828;4.416;2023-04-03T09:13:52;9.68;;;5.00;;
19879;SDS011;10102;50.828;4.416;2023-04-03T09:22:20;6.65;;;4.97;;
19879;SDS011;10102;50.828;4.416;2023-04-03T09:24:50;6.80;;;4.47;;
19879;SDS011;10102;50.828;4.416;2023-04-03T09:27:22;14.70;;;5.15;;
19879;SDS011;10102;50.828;4.416;2023-04-03T09:29:48;8.57;;;5.18;;
19879;SDS011;10102;50.828;4.416;2023-04-03T09:32:22;6.78;;;4.07;;
19879;SDS011;10102;50.828;4.416;2023-04-03T09:34:52;10.27;;;4.72;;
19879;SDS011;10102;50.828;4.416;2023-04-03T09:40:11;8.73;;;3.90;;
19879;SDS011;10102;50.828;4.416;2023-04-03T09:42:52;7.43;;;4.00;;
19879;SDS011;10102;50.828;4.416;2023-04-03T09:45:23;10.02;;;3.65;;
19879;SDS011;10102;50.828;4.416;2023-04-03T09:50:38;8.98;;;3.97;;
19879;SDS011;10102;50.828;4.416;2023-04-03T09:56:01;6.30;;;3.40;;
19879;SDS011;10102;50.828;4.416;2023-04-03T09:58:31;5.78;;;3.38;;
19879;SDS011;10102;50.828;4.416;2023-04-03T10:06:33;6.68;;;2.90;;
19879;SDS011;10102;50.828;4.416;2023-04-03T10:09:20;5.28;;;3.10;;
19879;SDS011;10102;50.828;4.416;2023-04-03T10:11:58;6.80;;;2.70;;
19879;SDS011;10102;50.828;4.416;2023-04-03T10:14:42;6.95;;;3.42;;
19879;SDS011;10102;50.828;4.416;2023-04-03T10:17:32;5.30;;;2.92;;
19879;SDS011;10102;50.828;4.416;2023-04-03T10:23:39;6.45;;;2.60;;
19879;SDS011;10102;50.828;4.416;2023-04-03T10:32:23;9.60;;;2.75;;
19879;SDS011;10102;50.828;4.416;2023-04-03T10:34:47;3.17;;;2.63;;
19879;SDS011;10102;50.828;4.416;2023-04-03T10:39:56;6.60;;;2.63;;
19879;SDS011;10102;50.828;4.416;2023-04-03T10:45:21;5.38;;;2.80;;
19879;SDS011;10102;50.828;4.416;2023-04-03T10:51:06;5.15;;;2.70;;
19879;SDS011;10102;50.828;4.416;2023-04-03T10:54:00;4.35;;;2.60;;
19879;SDS011;10102;50.828;4.416;2023-04-03T10:56:48;5.53;;;2.75;;
19879;SDS011;10102;50.828;4.416;2023-04-03T10:59:21;4.50;;;2.38;;
19879;SDS011;10102;50.828;4.416;2023-04-03T11:02:00;3.83;;;2.35;;
19879;SDS011;10102;50.828;4.416;2023-04-03T11:04:34;3.78;;;1.98;;
19879;SDS011;10102;50.828;4.416;2023-04-03T11:07:22;6.93;;;2.28;;
19879;SDS011;10102;50.828;4.416;2023-04-03T11:09:55;4.38;;;1.92;;
19879;SDS011;10102;50.828;4.416;2023-04-03T11:15:31;3.03;;;1.85;;
19879;SDS011;10102;50.828;4.416;2023-04-03T11:18:00;4.18;;;1.95;;
19879;SDS011;10102;50.828;4.416;2023-04-03T11:20:32;3.53;;;1.92;;
19879;SDS011;10102;50.828;4.416;2023-04-03T11:25:43;4.53;;;1.55;;
19879;SDS011;10102;50.828;4.416;2023-04-03T11:28:12;2.83;;;1.50;;
19879;SDS011;10102;50.828;4.416;2023-04-03T11:30:58;7.53;;;1.80;;
19879;SDS011;10102;50.828;4.416;2023-04-03T11:33:44;5.47;;;1.80;;
19879;SDS011;10102;50.828;4.416;2023-04-03T11:36:19;4.30;;;1.83;;
19879;SDS011;10102;50.828;4.416;2023-04-03T11:38:55;6.75;;;2.10;;
19879;SDS011;10102;50.828;4.416;2023-04-03T11:41:25;4.05;;;2.03;;
19879;SDS011;10102;50.828;4.416;2023-04-03T11:44:05;2.92;;;1.85;;
19879;SDS011;10102;50.828;4.416;2023-04-03T11:46:52;3.10;;;1.88;;
19879;SDS011;10102;50.828;4.416;2023-04-03T11:58:10;4.22;;;1.80;;
19879;SDS011;10102;50.828;4.416;2023-04-03T12:24:31;2.95;;;1.63;;
19879;SDS011;10102;50.828;4.416;2023-04-03T12:27:16;3.33;;;1.65;;
19879;SDS011;10102;50.828;4.416;2023-04-03T12:32:40;5.85;;;2.00;;
19879;SDS011;10102;50.828;4.416;2023-04-03T12:46:49;4.13;;;1.75;;
19879;SDS011;10102;50.828;4.416;2023-04-03T12:51:54;6.38;;;1.90;;
19879;SDS011;10102;50.828;4.416;2023-04-03T12:54:34;5.05;;;2.03;;
19879;SDS011;10102;50.828;4.416;2023-04-03T12:59:57;4.05;;;1.50;;
19879;SDS011;10102;50.828;4.416;2023-04-03T13:02:30;3.28;;;1.38;;
19879;SDS011;10102;50.828;4.416;2023-04-03T13:04:59;2.40;;;1.52;;
19879;SDS011;10102;50.828;4.416;2023-04-03T13:07:35;2.22;;;1.58;;
19879;SDS011;10102;50.828;4.416;2023-04-03T13:12:44;3.83;;;1.60;;
19879;SDS011;10102;50.828;4.416;2023-04-03T13:15:22;2.40;;;1.60;;
19879;SDS011;10102;50.828;4.416;2023-04-03T13:18:04;3.50;;;1.55;;
19879;SDS011;10102;50.828;4.416;2023-04-03T13:20:33;4.40;;;1.65;;
19879;SDS011;10102;50.828;4.416;2023-04-03T13:23:04;2.78;;;1.60;;
19879;SDS011;10102;50.828;4.416;2023-04-03T13:25:33;6.05;;;1.95;;
19879;SDS011;10102;50.828;4.416;2023-04-03T13:28:02;2.70;;;1.30;;
19879;SDS011;10102;50.828;4.416;2023-04-03T13:30:32;2.65;;;1.52;;
19879;SDS011;10102;50.828;4.416;2023-04-03T13:33:02;5.97;;;1.80;;
19879;SDS011;10102;50.828;4.416;2023-04-03T13:35:35;3.40;;;1.83;;
19879;SDS011;10102;50.828;4.416;2023-04-03T13:38:19;5.53;;;2.05;;
19879;SDS011;10102;50.828;4.416;2023-04-03T13:43:28;4.63;;;1.77;;
19879;SDS011;10102;50.828;4.416;2023-04-03T13:48:37;4.38;;;1.80;;
19879;SDS011;10102;50.828;4.416;2023-04-03T13:58:59;10.65;;;1.52;;
19879;SDS011;10102;50.828;4.416;2023-04-03T14:01:37;3.88;;;1.80;;
19879;SDS011;10102;50.828;4.416;2023-04-03T14:06:48;5.25;;;1.70;;
19879;SDS011;10102;50.828;4.416;2023-04-03T14:09:15;3.70;;;1.65;;
19879;SDS011;10102;50.828;4.416;2023-04-03T14:11:42;3.40;;;1.45;;
19879;SDS011;10102;50.828;4.416;2023-04-03T14:14:13;8.65;;;1.90;;
19879;SDS011;10102;50.828;4.416;2023-04-03T14:16:46;3.17;;;1.92;;
19879;SDS011;10102;50.828;4.416;2023-04-03T14:21:55;4.10;;;2.05;;
19879;SDS011;10102;50.828;4.416;2023-04-03T14:24:21;2.85;;;1.90;;
19879;SDS011;10102;50.828;4.416;2023-04-03T14:26:50;3.03;;;1.73;;
19879;SDS011;10102;50.828;4.416;2023-04-03T14:29:18;2.67;;;1.63;;
19879;SDS011;10102;50.828;4.416;2023-04-03T14:31:45;4.68;;;1.70;;
19879;SDS011;10102;50.828;4.416;2023-04-03T14:34:13;5.88;;;1.80;;
19879;SDS011;10102;50.828;4.416;2023-04-03T14:36:40;2.17;;;1.50;;
19879;SDS011;10102;50.828;4.416;2023-04-03T14:39:08;3.33;;;1.77;;
19879;SDS011;10102;50.828;4.416;2023-04-03T14:41:40;6.22;;;2.20;;
19879;SDS011;10102;50.828;4.416;2023-04-03T14:44:07;3.63;;;1.70;;
19879;SDS011;10102;50.828;4.416;2023-04-03T14:46:34;3.30;;;1.50;;
19879;SDS011;10102;50.828;4.416;2023-04-03T14:49:02;3.38;;;1.63;;
19879;SDS011;10102;50.828;4.416;2023-04-03T14:51:39;3.10;;;1.60;;
19879;SDS011;10102;50.828;4.416;2023-04-03T14:54:05;2.90;;;1.75;;
19879;SDS011;10102;50.828;4.416;2023-04-03T14:56:36;5.78;;;1.50;;
19879;SDS011;10102;50.828;4.416;2023-04-03T14:59:02;1.90;;;1.38;;
19879;SDS011;10102;50.828;4.416;2023-04-03T15:01:29;3.58;;;1.73;;
19879;SDS011;10102;50.828;4.416;2023-04-03T15:03:55;2.53;;;1.30;;
19879;SDS011;10102;50.828;4.416;2023-04-03T15:06:21;4.03;;;1.50;;
19879;SDS011;10102;50.828;4.416;2023-04-03T15:08:47;3.75;;;1.75;;
19879;SDS011;10102;50.828;4.416;2023-04-03T15:11:13;3.08;;;1.10;;
19879;SDS011;10102;50.828;4.416;2023-04-03T15:13:39;8.80;;;1.83;;
19879;SDS011;10102;50.828;4.416;2023-04-03T15:16:08;2.58;;;1.65;;
19879;SDS011;10102;50.828;4.416;2023-04-03T15:18:40;4.63;;;1.90;;
19879;SDS011;10102;50.828;4.416;2023-04-03T15:21:06;6.00;;;1.83;;
19879;SDS011;10102;50.828;4.416;2023-04-03T15:23:32;3.08;;;1.52;;
19879;SDS011;10102;50.828;4.416;2023-04-03T15:25:57;3.78;;;1.63;;
19879;SDS011;10102;50.828;4.416;2023-04-03T15:30:57;4.68;;;1.85;;
19879;SDS011;10102;50.828;4.416;2023-04-03T15:33:23;3.28;;;1.63;;
19879;SDS011;10102;50.828;4.416;2023-04-03T15:35:49;2.55;;;1.60;;
19879;SDS011;10102;50.828;4.416;2023-04-03T15:38:15;6.13;;;2.00;;
19879;SDS011;10102;50.828;4.416;2023-04-03T15:40:41;3.95;;;1.98;;
19879;SDS011;10102;50.828;4.416;2023-04-03T15:43:07;4.07;;;2.20;;
19879;SDS011;10102;50.828;4.416;2023-04-03T15:45:33;4.22;;;1.92;;
19879;SDS011;10102;50.828;4.416;2023-04-03T15:48:01;2.28;;;1.55;;
19879;SDS011;10102;50.828;4.416;2023-04-03T15:50:29;3.22;;;1.90;;
19879;SDS011;10102;50.828;4.416;2023-04-03T15:52:55;3.60;;;1.52;;
19879;SDS011;10102;50.828;4.416;2023-04-03T15:55:24;3.63;;;2.00;;
19879;SDS011;10102;50.828;4.416;2023-04-03T15:57:51;7.75;;;2.05;;
19879;SDS011;10102;50.828;4.416;2023-04-03T16:00:18;3.50;;;2.27;;
19879;SDS011;10102;50.828;4.416;2023-04-03T16:02:45;5.32;;;2.10;;
19879;SDS011;10102;50.828;4.416;2023-04-03T16:05:12;5.15;;;2.30;;
19879;SDS011;10102;50.828;4.416;2023-04-03T16:07:40;3.35;;;2.10;;
19879;SDS011;10102;50.828;4.416;2023-04-03T16:10:07;10.27;;;5.10;;
19879;SDS011;10102;50.828;4.416;2023-04-03T16:12:34;5.95;;;3.15;;
19879;SDS011;10102;50.828;4.416;2023-04-03T16:15:00;7.47;;;2.30;;
19879;SDS011;10102;50.828;4.416;2023-04-03T16:17:26;4.85;;;2.53;;
19879;SDS011;10102;50.828;4.416;2023-04-03T16:19:53;5.05;;;2.30;;
19879;SDS011;10102;50.828;4.416;2023-04-03T16:22:21;7.30;;;2.10;;
19879;SDS011;10102;50.828;4.416;2023-04-03T16:24:48;7.20;;;1.90;;
19879;SDS011;10102;50.828;4.416;2023-04-03T16:27:14;4.22;;;2.17;;
19879;SDS011;10102;50.828;4.416;2023-04-03T16:29:41;5.30;;;2.30;;
19879;SDS011;10102;50.828;4.416;2023-04-03T16:32:06;4.47;;;1.90;;
19879;SDS011;10102;50.828;4.416;2023-04-03T16:34:32;3.38;;;2.42;;
19879;SDS011;10102;50.828;4.416;2023-04-03T16:36:58;3.28;;;1.73;;
19879;SDS011;10102;50.828;4.416;2023-04-03T16:39:24;3.38;;;1.88;;
19879;SDS011;10102;50.828;4.416;2023-04-03T16:41:50;3.80;;;2.28;;
19879;SDS011;10102;50.828;4.416;2023-04-03T16:44:16;6.93;;;2.22;;
19879;SDS011;10102;50.828;4.416;2023-04-03T16:46:41;5.22;;;2.25;;
19879;SDS011;10102;50.828;4.416;2023-04-03T16:49:07;5.07;;;1.92;;
19879;SDS011;10102;50.828;4.416;2023-04-03T16:51:33;6.70;;;2.22;;
19879;SDS011;10102;50.828;4.416;2023-04-03T16:53:58;4.57;;;2.30;;
19879;SDS011;10102;50.828;4.416;2023-04-03T16:56:24;5.85;;;2.38;;
19879;SDS011;10102;50.828;4.416;2023-04-03T16:58:53;4.60;;;1.92;;
19879;SDS011;10102;50.828;4.416;2023-04-03T17:01:19;5.97;;;2.83;;
19879;SDS011;10102;50.828;4.416;2023-04-03T17:03:46;3.85;;;2.53;;
19879;SDS011;10102;50.828;4.416;2023-04-03T17:06:15;7.15;;;2.38;;
19879;SDS011;10102;50.828;4.416;2023-04-03T17:08:44;4.47;;;1.80;;
19879;SDS011;10102;50.828;4.416;2023-04-03T17:11:11;4.07;;;2.22;;